createdAt,value
2019-06-08T00:00:23.540Z,95839.54
2019-06-08T00:01:27.078Z,95839.30
2019-06-08T00:02:31.274Z,95832.70
2019-06-08T00:03:34.791Z,95818.77
2019-06-08T00:04:38.974Z,95819.73
2019-06-08T00:05:42.541Z,95813.76
2019-06-08T00:06:46.596Z,95814.36
2019-06-08T00:07:50.212Z,95807.70
2019-06-08T00:08:54.372Z,95809.37
2019-06-08T00:09:57.895Z,95802.20
2019-06-08T00:11:01.995Z,95810.52
2019-06-08T00:12:05.607Z,95817.94
2019-06-08T00:13:09.625Z,95813.34
2019-06-08T00:14:13.178Z,95816.92
2019-06-08T00:15:18.635Z,95821.77
2019-06-08T00:16:23.633Z,95819.91
2019-06-08T00:17:37.960Z,95829.58
2019-06-08T00:18:34.110Z,95835.66
2019-06-08T00:19:38.227Z,95838.95
2019-06-08T00:20:41.763Z,95846.85
2019-06-08T00:21:45.804Z,95853.08
2019-06-08T00:22:49.274Z,95856.07
2019-06-08T00:23:53.373Z,95866.01
2019-06-08T00:24:56.977Z,95866.84
2019-06-08T00:26:01.070Z,95865.95
2019-06-08T00:27:04.585Z,95872.13
2019-06-08T00:28:08.680Z,95873.80
2019-06-08T00:29:12.231Z,95878.69
2019-06-08T00:30:16.410Z,95874.88
2019-06-08T00:31:20.178Z,95869.22
2019-06-08T00:32:25.334Z,95872.70
2019-06-08T00:33:28.777Z,95878.20
2019-06-08T00:34:32.896Z,95880.69
2019-06-08T00:35:36.508Z,95880.44
2019-06-08T00:36:40.646Z,95879.59
2019-06-08T00:37:44.152Z,95889.52
2019-06-08T00:38:48.171Z,95885.01
2019-06-08T00:39:51.675Z,95887.52
2019-06-08T00:40:55.725Z,95889.52
2019-06-08T00:41:59.314Z,95889.03
2019-06-08T00:43:03.354Z,95899.92
2019-06-08T00:44:06.943Z,95894.17
2019-06-08T00:45:11.958Z,95893.50
2019-06-08T00:46:15.534Z,95896.77
2019-06-08T00:47:20.515Z,95902.16
2019-06-08T00:48:24.657Z,95900.34
2019-06-08T00:49:29.129Z,95904.06
2019-06-08T00:50:33.490Z,95899.00
2019-06-08T00:51:37.513Z,95902.00
2019-06-08T00:52:41.037Z,95906.17
2019-06-08T00:53:45.198Z,95906.41
2019-06-08T00:54:48.783Z,95903.66
2019-06-08T00:55:52.896Z,95905.51
2019-06-08T00:56:56.489Z,95899.84
2019-06-08T00:58:00.651Z,95907.66
2019-06-08T00:59:04.240Z,95910.08
2019-06-08T01:00:10.522Z,95906.48
2019-06-08T01:01:14.083Z,95911.83
2019-06-08T01:02:18.331Z,95916.16
2019-06-08T01:03:21.847Z,95913.58
2019-06-08T01:04:27.147Z,95917.24
2019-06-08T01:05:33.093Z,95920.83
2019-06-08T01:06:37.265Z,95916.92
2019-06-08T01:07:40.792Z,95923.98
2019-06-08T01:08:44.897Z,95918.66
2019-06-08T01:09:48.426Z,95920.16
2019-06-08T01:10:52.795Z,95924.06
2019-06-08T01:11:56.611Z,95924.74
2019-06-08T01:13:00.740Z,95924.14
2019-06-08T01:14:04.434Z,95922.17
2019-06-08T01:15:09.472Z,95925.38
2019-06-08T01:16:14.679Z,95926.95
2019-06-08T01:17:19.295Z,95930.61
2019-06-08T01:18:24.567Z,95932.42
2019-06-08T01:19:29.619Z,95934.78
2019-06-08T01:20:33.449Z,95930.95
2019-06-08T01:21:37.819Z,95935.93
2019-06-08T01:22:41.415Z,95937.41
2019-06-08T01:23:45.609Z,95936.83
2019-06-08T01:24:49.242Z,95935.92
2019-06-08T01:25:53.835Z,95945.96
2019-06-08T01:26:57.496Z,95939.11
2019-06-08T01:28:01.664Z,95939.53
2019-06-08T01:29:05.565Z,95945.94
2019-06-08T01:30:11.561Z,95943.66
2019-06-08T01:31:15.025Z,95945.18
2019-06-08T01:32:20.257Z,95942.77
2019-06-08T01:33:24.457Z,95936.65
2019-06-08T01:34:29.021Z,95935.68
2019-06-08T01:35:32.709Z,95935.47
2019-06-08T01:36:36.895Z,95931.34
2019-06-08T01:37:40.419Z,95940.19
2019-06-08T01:38:44.443Z,95929.22
2019-06-08T01:39:47.993Z,95927.47
2019-06-08T01:40:52.071Z,95928.44
2019-06-08T01:41:55.627Z,95929.82
2019-06-08T01:42:59.727Z,95940.14
2019-06-08T01:44:03.362Z,95942.49
2019-06-08T01:45:11.524Z,95942.39
2019-06-08T01:46:17.066Z,95943.11
2019-06-08T01:47:22.127Z,95932.05
2019-06-08T01:48:26.238Z,95935.58
2019-06-08T01:49:30.581Z,95934.12
2019-06-08T01:50:34.226Z,95933.52
2019-06-08T01:51:38.359Z,95942.98
2019-06-08T01:52:41.816Z,95948.74
2019-06-08T01:53:45.985Z,95934.52
2019-06-08T01:54:49.499Z,95931.98
2019-06-08T01:55:53.525Z,95933.31
2019-06-08T01:56:57.073Z,95937.79
2019-06-08T01:58:01.258Z,95940.30
2019-06-08T01:59:04.851Z,95942.72
2019-06-08T02:01:14.915Z,95947.17
2019-06-08T02:02:19.116Z,95945.69
2019-06-08T02:03:23.824Z,95955.22
2019-06-08T02:04:28.172Z,95958.44
2019-06-08T02:05:32.529Z,95959.11
2019-06-08T02:06:36.817Z,95956.01
2019-06-08T02:07:40.345Z,95965.19
2019-06-08T02:08:44.466Z,95965.91
2019-06-08T02:09:48.066Z,95962.03
2019-06-08T02:10:52.283Z,95960.34
2019-06-08T02:11:55.876Z,95965.42
2019-06-08T02:13:00.016Z,95969.67
2019-06-08T02:14:03.838Z,95974.45
2019-06-08T02:15:08.725Z,95971.31
2019-06-08T02:16:12.242Z,95976.98
2019-06-08T02:17:16.324Z,95978.64
2019-06-08T02:18:35.529Z,95979.35
2019-06-08T02:19:26.660Z,95950.36
2019-06-08T02:20:30.823Z,95981.48
2019-06-08T02:21:35.018Z,95976.35
2019-06-08T02:22:39.377Z,95975.20
2019-06-08T02:23:43.566Z,95980.73
2019-06-08T02:24:47.029Z,95980.73
2019-06-08T02:25:51.207Z,95970.72
2019-06-08T02:26:54.805Z,95975.02
2019-06-08T02:27:59.070Z,95982.30
2019-06-08T02:29:02.746Z,95981.61
2019-06-08T02:30:14.485Z,95982.61
2019-06-08T02:31:17.986Z,95991.83
2019-06-08T02:32:22.080Z,95985.66
2019-06-08T02:33:25.524Z,95990.81
2019-06-08T02:34:30.752Z,95991.80
2019-06-08T02:35:35.950Z,95993.73
2019-06-08T02:36:40.935Z,95996.81
2019-06-08T02:37:44.415Z,96001.68
2019-06-08T02:38:48.534Z,96000.47
2019-06-08T02:39:52.126Z,95999.22
2019-06-08T02:40:56.296Z,96001.54
2019-06-08T02:41:59.739Z,95999.98
2019-06-08T02:43:03.908Z,96001.04
2019-06-08T02:44:07.515Z,96001.38
2019-06-08T02:45:12.282Z,95998.92
2019-06-08T02:46:15.852Z,96002.83
2019-06-08T02:47:19.951Z,96000.05
2019-06-08T02:48:23.469Z,96002.30
2019-06-08T02:49:29.033Z,96003.73
2019-06-08T02:50:44.530Z,96001.91
2019-06-08T02:51:48.709Z,96004.16
2019-06-08T02:52:53.018Z,96015.42
2019-06-08T02:53:58.455Z,96015.02
2019-06-08T02:55:02.142Z,96012.47
2019-06-08T02:56:06.287Z,96012.02
2019-06-08T02:57:10.896Z,96011.55
2019-06-08T02:58:16.949Z,96018.98
2019-06-08T02:59:22.811Z,96017.39
2019-06-08T03:00:27.049Z,96018.00
2019-06-08T03:01:35.753Z,96016.56
2019-06-08T03:02:42.527Z,96018.40
2019-06-08T03:03:47.664Z,96017.44
2019-06-08T03:04:53.496Z,96018.23
2019-06-08T03:06:00.016Z,96020.95
2019-06-08T03:07:05.553Z,96015.77
2019-06-08T03:08:10.836Z,96016.80
2019-06-08T03:09:15.624Z,96017.16
2019-06-08T03:10:19.206Z,96019.86
2019-06-08T03:11:23.310Z,96026.78
2019-06-08T03:12:27.278Z,96031.13
2019-06-08T03:13:33.570Z,96030.78
2019-06-08T03:14:39.702Z,96027.14
2019-06-08T03:15:44.342Z,96035.13
2019-06-08T03:16:47.954Z,96030.38
2019-06-08T03:17:51.982Z,96034.37
2019-06-08T03:18:55.503Z,96033.27
2019-06-08T03:20:00.698Z,96032.55
2019-06-08T03:21:04.200Z,96032.21
2019-06-08T03:22:10.756Z,96028.98
2019-06-08T03:23:13.436Z,96039.61
2019-06-08T03:24:17.561Z,96038.70
2019-06-08T03:25:21.082Z,96044.42
2019-06-08T03:26:25.105Z,96039.84
2019-06-08T03:27:28.569Z,96034.52
2019-06-08T03:28:33.183Z,96041.70
2019-06-08T03:29:39.111Z,96042.58
2019-06-08T03:30:52.316Z,96048.28
2019-06-08T03:31:55.547Z,96041.67
2019-06-08T03:32:56.789Z,96050.98
2019-06-08T03:33:59.903Z,96049.19
2019-06-08T03:35:05.047Z,96051.00
2019-06-08T03:36:08.590Z,96057.17
2019-06-08T03:37:12.738Z,96053.52
2019-06-08T03:38:16.169Z,96060.47
2019-06-08T03:39:20.263Z,96059.27
2019-06-08T03:40:23.805Z,96058.11
2019-06-08T03:41:27.846Z,96063.01
2019-06-08T03:42:31.290Z,96059.81
2019-06-08T03:43:37.397Z,96059.23
2019-06-08T03:44:40.553Z,96068.36
2019-06-08T03:45:45.437Z,96072.75
2019-06-08T03:46:49.008Z,96073.45
2019-06-08T03:47:53.111Z,96076.90
2019-06-08T03:48:56.576Z,96078.64
2019-06-08T03:50:01.684Z,96077.47
2019-06-08T03:51:05.204Z,96077.09
2019-06-08T03:52:09.234Z,96079.23
2019-06-08T03:53:12.748Z,96077.21
2019-06-08T03:54:16.785Z,96079.30
2019-06-08T03:55:20.422Z,96080.75
2019-06-08T03:56:24.529Z,96088.72
2019-06-08T03:57:28.082Z,96086.28
2019-06-08T03:58:34.186Z,96082.87
2019-06-08T03:59:38.535Z,96081.99
2019-06-08T04:00:44.442Z,96081.58
2019-06-08T04:01:49.866Z,96085.75
2019-06-08T04:02:53.855Z,96091.52
2019-06-08T04:04:00.112Z,96091.20
2019-06-08T04:05:03.125Z,96096.16
2019-06-08T04:06:06.721Z,96096.22
2019-06-08T04:07:10.853Z,96098.81
2019-06-08T04:08:14.368Z,96102.76
2019-06-08T04:09:18.450Z,96096.47
2019-06-08T04:10:21.876Z,96100.23
2019-06-08T04:11:25.988Z,96101.78
2019-06-08T04:12:29.495Z,96100.61
2019-06-08T04:13:33.608Z,96103.74
2019-06-08T04:14:37.866Z,96106.69
2019-06-08T04:15:42.637Z,96110.23
2019-06-08T04:16:47.259Z,96109.34
2019-06-08T04:17:51.377Z,96115.35
2019-06-08T04:18:54.798Z,96113.23
2019-06-08T04:20:10.215Z,96111.46
2019-06-08T04:21:04.104Z,96114.05
2019-06-08T04:22:08.296Z,96112.91
2019-06-08T04:23:11.883Z,96119.30
2019-06-08T04:24:16.014Z,96113.90
2019-06-08T04:25:19.674Z,96114.75
2019-06-08T04:26:23.864Z,96118.95
2019-06-08T04:27:27.381Z,96120.47
2019-06-08T04:28:31.480Z,96122.72
2019-06-08T04:29:34.919Z,96120.34
2019-06-08T04:30:40.940Z,96117.61
2019-06-08T04:31:45.915Z,96125.69
2019-06-08T04:32:50.083Z,96124.41
2019-06-08T04:33:53.655Z,96126.41
2019-06-08T04:34:57.827Z,96126.53
2019-06-08T04:36:01.404Z,96122.02
2019-06-08T04:37:05.449Z,96123.47
2019-06-08T04:38:08.976Z,96127.23
2019-06-08T04:39:13.147Z,96125.47
2019-06-08T04:40:17.138Z,96133.44
2019-06-08T04:41:21.228Z,96121.92
2019-06-08T04:42:24.835Z,96127.67
2019-06-08T04:43:28.854Z,96128.37
2019-06-08T04:44:32.289Z,96131.22
2019-06-08T04:45:36.401Z,96134.98
2019-06-08T04:46:43.037Z,96135.81
2019-06-08T04:47:48.250Z,96134.20
2019-06-08T04:48:51.886Z,96139.80
2019-06-08T04:49:55.958Z,96137.95
2019-06-08T04:50:59.423Z,96133.89
2019-06-08T04:52:03.488Z,96138.41
2019-06-08T04:53:07.034Z,96140.95
2019-06-08T04:54:14.438Z,96143.23
2019-06-08T04:55:16.519Z,96143.58
2019-06-08T04:56:22.697Z,96143.93
2019-06-08T04:57:26.404Z,96151.48
2019-06-08T04:58:30.473Z,96154.12
2019-06-08T04:59:34.059Z,96158.80
2019-06-08T05:00:39.103Z,96163.28
2019-06-08T05:01:45.000Z,96163.37
2019-06-08T05:02:51.098Z,96161.33
2019-06-08T05:03:54.312Z,96167.28
2019-06-08T05:04:58.495Z,96172.08
2019-06-08T05:06:02.220Z,96177.91
2019-06-08T05:07:06.447Z,96173.57
2019-06-08T05:08:10.001Z,96174.33
2019-06-08T05:09:14.075Z,96178.66
2019-06-08T05:10:17.838Z,96178.66
2019-06-08T05:11:22.114Z,96174.87
2019-06-08T05:12:25.765Z,96179.91
2019-06-08T05:13:29.974Z,96176.98
2019-06-08T05:14:33.582Z,96177.77
2019-06-08T05:15:39.100Z,96180.78
2019-06-08T05:16:43.210Z,96186.63
2019-06-08T05:17:47.653Z,96183.55
2019-06-08T05:18:53.884Z,96188.86
2019-06-08T05:19:58.148Z,96184.53
2019-06-08T05:21:03.236Z,96182.47
2019-06-08T05:22:07.637Z,96185.45
2019-06-08T05:23:11.429Z,96192.38
2019-06-08T05:24:15.833Z,96187.07
2019-06-08T05:25:19.424Z,96194.17
2019-06-08T05:26:23.545Z,96193.22
2019-06-08T05:27:27.129Z,96199.00
2019-06-08T05:28:31.439Z,96199.83
2019-06-08T05:29:35.075Z,96199.20
2019-06-08T05:30:39.406Z,96208.85
2019-06-08T05:31:43.539Z,96208.92
2019-06-08T05:32:48.032Z,96207.94
2019-06-08T05:33:51.611Z,96210.56
2019-06-08T05:34:55.737Z,96216.89
2019-06-08T05:35:59.284Z,96217.49
2019-06-08T05:37:03.389Z,96212.67
2019-06-08T05:38:06.835Z,96216.05
2019-06-08T05:39:10.930Z,96210.13
2019-06-08T05:40:15.036Z,96218.45
2019-06-08T05:41:19.371Z,96215.71
2019-06-08T05:42:22.814Z,96217.39
2019-06-08T05:43:26.839Z,96226.66
2019-06-08T05:44:30.279Z,96224.00
2019-06-08T05:45:34.441Z,96220.94
2019-06-08T05:46:39.592Z,96220.18
2019-06-08T05:47:43.958Z,96226.83
2019-06-08T05:48:48.022Z,96226.13
2019-06-08T05:49:52.148Z,96232.82
2019-06-08T05:51:03.577Z,96230.30
2019-06-08T05:52:01.711Z,96236.88
2019-06-08T05:53:05.406Z,96233.33
2019-06-08T05:54:09.457Z,96233.74
2019-06-08T05:55:13.526Z,96239.59
2019-06-08T05:56:17.857Z,96245.99
2019-06-08T05:57:21.561Z,96243.12
2019-06-08T05:58:28.571Z,96244.36
2019-06-08T05:59:32.086Z,96243.92
2019-06-08T06:00:36.540Z,96252.95
2019-06-08T06:01:40.427Z,96250.20
2019-06-08T06:02:44.818Z,96243.07
2019-06-08T06:03:48.846Z,96244.27
2019-06-08T06:04:53.960Z,96244.58
2019-06-08T06:05:57.596Z,96249.76
2019-06-08T06:07:02.138Z,96257.59
2019-06-08T06:08:17.999Z,96255.43
2019-06-08T06:09:11.878Z,96254.86
2019-06-08T06:10:15.746Z,96258.91
2019-06-08T06:11:19.841Z,96260.94
2019-06-08T06:12:23.574Z,96264.22
2019-06-08T06:13:27.902Z,96263.67
2019-06-08T06:14:31.639Z,96268.72
2019-06-08T06:15:35.861Z,96267.00
2019-06-08T06:16:40.808Z,96271.34
2019-06-08T06:17:46.669Z,96270.58
2019-06-08T06:18:52.154Z,96274.43
2019-06-08T06:19:56.304Z,96276.94
2019-06-08T06:21:10.483Z,96280.48
2019-06-08T06:22:06.093Z,96282.36
2019-06-08T06:23:09.826Z,96278.30
2019-06-08T06:24:14.025Z,96283.28
2019-06-08T06:25:17.619Z,96281.69
2019-06-08T06:26:21.879Z,96287.84
2019-06-08T06:27:25.520Z,96282.81
2019-06-08T06:28:29.429Z,96285.25
2019-06-08T06:29:33.164Z,96281.98
2019-06-08T06:30:37.330Z,96292.91
2019-06-08T06:31:41.644Z,96290.92
2019-06-08T06:32:46.096Z,96289.53
2019-06-08T06:33:50.060Z,96288.34
2019-06-08T06:34:54.190Z,96290.81
2019-06-08T06:35:57.826Z,96294.42
2019-06-08T06:37:02.110Z,96296.27
2019-06-08T06:38:05.671Z,96297.64
2019-06-08T06:39:09.968Z,96292.62
2019-06-08T06:40:15.504Z,96295.77
2019-06-08T06:41:19.937Z,96300.95
2019-06-08T06:42:24.977Z,96293.12
2019-06-08T06:43:29.270Z,96297.08
2019-06-08T06:44:32.934Z,96298.76
2019-06-08T06:45:37.211Z,96300.22
2019-06-08T06:46:41.855Z,96299.38
2019-06-08T06:47:46.481Z,96297.50
2019-06-08T06:48:50.419Z,96299.89
2019-06-08T06:49:54.661Z,96300.56
2019-06-08T06:50:58.188Z,96307.75
2019-06-08T06:52:02.534Z,96300.69
2019-06-08T06:53:06.200Z,96303.34
2019-06-08T06:54:10.699Z,96304.27
2019-06-08T06:55:14.373Z,96309.64
2019-06-08T06:56:18.629Z,96308.45
2019-06-08T06:57:22.288Z,96311.95
2019-06-08T06:58:26.712Z,96312.81
2019-06-08T06:59:30.143Z,96311.05
2019-06-08T07:00:34.473Z,96317.41
2019-06-08T07:01:38.622Z,96320.89
2019-06-08T07:02:43.565Z,96324.79
2019-06-08T07:03:47.978Z,96320.23
2019-06-08T07:04:52.314Z,96323.52
2019-06-08T07:05:55.925Z,96323.43
2019-06-08T07:07:00.227Z,96323.42
2019-06-08T07:08:03.864Z,96318.60
2019-06-08T07:09:08.104Z,96322.23
2019-06-08T07:10:11.846Z,96317.93
2019-06-08T07:11:16.349Z,96317.30
2019-06-08T07:12:20.031Z,96316.73
2019-06-08T07:13:24.298Z,96322.41
2019-06-08T07:14:27.908Z,96326.83
2019-06-08T07:15:32.149Z,96320.99
2019-06-08T07:16:35.667Z,96322.23
2019-06-08T07:17:39.993Z,96326.03
2019-06-08T07:18:43.579Z,96324.55
2019-06-08T07:19:48.314Z,96323.92
2019-06-08T07:20:52.384Z,96320.80
2019-06-08T07:21:56.482Z,96326.66
2019-06-08T07:23:00.045Z,96324.70
2019-06-08T07:24:04.405Z,96328.26
2019-06-08T07:25:08.308Z,96330.51
2019-06-08T07:26:12.666Z,96332.41
2019-06-08T07:27:16.171Z,96329.23
2019-06-08T07:28:20.284Z,96332.52
2019-06-08T07:29:23.991Z,96329.97
2019-06-08T07:30:27.909Z,96331.36
2019-06-08T07:31:31.557Z,96340.53
2019-06-08T07:32:35.650Z,96335.13
2019-06-08T07:33:39.344Z,96338.81
2019-06-08T07:34:43.494Z,96340.81
2019-06-08T07:35:48.717Z,96337.14
2019-06-08T07:36:53.465Z,96339.95
2019-06-08T07:37:57.100Z,96349.90
2019-06-08T07:39:01.228Z,96345.02
2019-06-08T07:40:07.682Z,96345.05
2019-06-08T07:41:11.786Z,96344.73
2019-06-08T07:42:15.310Z,96343.14
2019-06-08T07:43:19.450Z,96341.09
2019-06-08T07:44:22.934Z,96339.59
2019-06-08T07:45:27.092Z,96339.25
2019-06-08T07:46:30.594Z,96344.67
2019-06-08T07:47:34.697Z,96340.14
2019-06-08T07:48:38.181Z,96346.53
2019-06-08T07:49:42.200Z,96349.80
2019-06-08T07:50:45.820Z,96349.80
2019-06-08T07:52:02.567Z,96346.07
2019-06-08T07:52:55.182Z,96348.92
2019-06-08T07:53:59.910Z,96344.39
2019-06-08T07:55:06.257Z,96345.55
2019-06-08T07:56:10.765Z,96351.43
2019-06-08T07:57:14.621Z,96351.78
2019-06-08T07:58:19.409Z,96349.34
2019-06-08T07:59:23.385Z,96344.73
2019-06-08T08:00:27.790Z,96339.54
2019-06-08T08:01:36.310Z,96338.43
2019-06-08T08:02:38.107Z,96345.43
2019-06-08T08:03:41.989Z,96342.05
2019-06-08T08:04:46.442Z,96342.81
2019-06-08T08:05:50.461Z,96341.73
2019-06-08T08:06:54.754Z,96346.08
2019-06-08T08:07:58.995Z,96344.97
2019-06-08T08:09:03.487Z,96345.73
2019-06-08T08:10:07.818Z,96345.73
2019-06-08T08:11:12.207Z,96345.86
2019-06-08T08:12:16.014Z,96350.54
2019-06-08T08:13:20.331Z,96356.97
2019-06-08T08:14:24.232Z,96348.70
2019-06-08T08:15:28.766Z,96354.50
2019-06-08T08:16:32.466Z,96352.30
2019-06-08T08:17:37.132Z,96352.06
2019-06-08T08:18:41.016Z,96350.41
2019-06-08T08:19:45.600Z,96350.54
2019-06-08T08:20:53.010Z,96347.19
2019-06-08T08:22:03.150Z,96351.81
2019-06-08T08:23:05.998Z,96352.81
2019-06-08T08:24:09.482Z,96346.68
2019-06-08T08:25:13.560Z,96342.27
2019-06-08T08:26:18.007Z,96355.56
2019-06-08T08:27:21.698Z,96343.06
2019-06-08T08:28:27.953Z,96350.59
2019-06-08T08:29:32.406Z,96350.51
2019-06-08T08:30:37.699Z,96350.45
2019-06-08T08:31:41.797Z,96351.27
2019-06-08T08:32:50.786Z,96358.11
2019-06-08T08:33:54.655Z,96352.34
2019-06-08T08:35:03.192Z,96352.28
2019-06-08T08:36:07.479Z,96363.68
2019-06-08T08:37:12.153Z,96352.00
2019-06-08T08:38:17.738Z,96351.01
2019-06-08T08:39:22.349Z,96358.04
2019-06-08T08:40:28.205Z,96354.15
2019-06-08T08:41:33.045Z,96351.23
2019-06-08T08:42:39.760Z,96350.12
2019-06-08T08:43:44.080Z,96349.27
2019-06-08T08:44:48.627Z,96348.03
2019-06-08T08:45:54.085Z,96349.21
2019-06-08T08:47:02.388Z,96351.42
2019-06-08T08:48:21.489Z,96356.94
2019-06-08T08:49:13.082Z,96359.63
2019-06-08T08:50:19.323Z,96355.48
2019-06-08T08:51:23.326Z,96359.91
2019-06-08T08:52:36.420Z,96353.88
2019-06-08T08:53:32.761Z,96352.78
2019-06-08T08:54:37.693Z,96355.08
2019-06-08T08:55:41.694Z,96356.15
2019-06-08T08:56:52.190Z,96354.58
2019-06-08T08:57:54.802Z,96357.63
2019-06-08T08:59:01.491Z,96353.88
2019-06-08T09:00:08.532Z,96357.89
2019-06-08T09:01:12.979Z,96357.48
2019-06-08T09:02:20.719Z,96372.02
2019-06-08T09:03:30.944Z,96367.36
2019-06-08T09:04:28.134Z,96362.88
2019-06-08T09:05:32.349Z,96363.06
2019-06-08T09:06:38.097Z,96362.03
2019-06-08T09:07:42.612Z,96365.36
2019-06-08T09:08:48.542Z,96364.09
2019-06-08T09:09:53.558Z,96366.82
2019-06-08T09:10:59.610Z,96365.69
2019-06-08T09:12:04.577Z,96362.39
2019-06-08T09:13:09.274Z,96366.22
2019-06-08T09:14:14.573Z,96371.08
2019-06-08T09:15:19.240Z,96360.77
2019-06-08T09:16:23.824Z,96360.08
2019-06-08T09:17:29.158Z,96361.31
2019-06-08T09:18:33.895Z,96365.08
2019-06-08T09:19:38.378Z,96351.34
2019-06-08T09:20:43.145Z,96363.95
2019-06-08T09:21:48.180Z,96364.32
2019-06-08T09:23:00.769Z,96363.73
2019-06-08T09:24:01.054Z,96357.95
2019-06-08T09:25:08.621Z,96363.45
2019-06-08T09:26:13.074Z,96366.54
2019-06-08T09:27:18.144Z,96363.69
2019-06-08T09:28:22.180Z,96365.14
2019-06-08T09:29:28.887Z,96370.84
2019-06-08T09:30:34.055Z,96365.94
2019-06-08T09:31:39.220Z,96367.33
2019-06-08T09:32:43.125Z,96374.11
2019-06-08T09:34:06.731Z,96376.08
2019-06-08T09:34:54.650Z,96376.64
2019-06-08T09:36:02.401Z,96371.28
2019-06-08T09:37:05.800Z,96375.59
2019-06-08T09:38:11.172Z,96379.07
2019-06-08T09:39:18.367Z,96383.03
2019-06-08T09:40:21.731Z,96378.84
2019-06-08T09:41:30.770Z,96381.15
2019-06-08T09:42:31.744Z,96381.51
2019-06-08T09:43:38.585Z,96375.73
2019-06-08T09:44:42.170Z,96380.80
2019-06-08T09:45:48.369Z,96381.63
2019-06-08T09:46:53.607Z,96377.62
2019-06-08T09:48:03.636Z,96383.12
2019-06-08T09:49:11.023Z,96385.28
2019-06-08T09:50:12.254Z,96385.88
2019-06-08T09:51:19.689Z,96379.28
2019-06-08T09:52:28.141Z,96376.56
2019-06-08T09:53:37.683Z,96378.18
2019-06-08T09:54:38.562Z,96376.21
2019-06-08T09:55:43.236Z,96377.02
2019-06-08T09:56:47.914Z,96374.30
2019-06-08T09:57:54.517Z,96377.17
2019-06-08T09:59:04.024Z,96385.63
2019-06-08T10:00:17.814Z,96381.32
2019-06-08T10:01:19.322Z,96376.19
2019-06-08T10:02:23.653Z,96384.06
2019-06-08T10:03:30.851Z,96380.11
2019-06-08T10:04:35.146Z,96390.84
2019-06-08T10:05:38.960Z,96388.06
2019-06-08T10:06:43.122Z,96382.39
2019-06-08T10:07:48.759Z,96368.06
2019-06-08T10:08:54.292Z,96370.95
2019-06-08T10:10:00.442Z,96372.58
2019-06-08T10:11:09.006Z,96372.98
2019-06-08T10:12:14.997Z,96377.71
2019-06-08T10:13:22.321Z,96378.64
2019-06-08T10:14:28.189Z,96385.35
2019-06-08T10:15:33.468Z,96379.46
2019-06-08T10:16:38.165Z,96375.58
2019-06-08T10:17:47.668Z,96374.09
2019-06-08T10:18:51.890Z,96371.02
2019-06-08T10:20:00.226Z,96383.64
2019-06-08T10:21:03.426Z,96375.66
2019-06-08T10:22:08.664Z,96372.52
2019-06-08T10:23:28.148Z,96375.47
2019-06-08T10:24:18.861Z,96378.58
2019-06-08T10:25:22.652Z,96379.00
2019-06-08T10:26:28.243Z,96379.47
2019-06-08T10:27:32.081Z,96382.20
2019-06-08T10:28:39.796Z,96374.33
2019-06-08T10:29:44.517Z,96372.14
2019-06-08T10:30:49.415Z,96366.55
2019-06-08T10:31:53.378Z,96378.77
2019-06-08T10:33:00.487Z,96380.03
2019-06-08T10:34:06.151Z,96372.05
2019-06-08T10:35:12.689Z,96372.34
2019-06-08T10:36:18.264Z,96379.70
2019-06-08T10:37:22.629Z,96376.80
2019-06-08T10:38:29.028Z,96387.20
2019-06-08T10:39:33.707Z,96372.86
2019-06-08T10:40:42.610Z,96379.55
2019-06-08T10:41:51.256Z,96377.64
2019-06-08T10:42:54.028Z,96383.75
2019-06-08T10:44:01.489Z,96376.30
2019-06-08T10:45:10.389Z,96374.78
2019-06-08T10:46:17.167Z,96369.83
2019-06-08T10:47:19.800Z,96380.39
2019-06-08T10:48:30.420Z,96369.34
2019-06-08T10:49:34.560Z,96375.33
2019-06-08T10:50:39.425Z,96376.20
2019-06-08T10:51:44.607Z,96378.97
2019-06-08T10:52:49.248Z,96376.49
2019-06-08T10:53:53.965Z,96382.02
2019-06-08T10:55:01.541Z,96381.20
2019-06-08T10:56:09.619Z,96381.30
2019-06-08T10:57:12.681Z,96374.45
2019-06-08T10:58:19.376Z,96376.59
2019-06-08T10:59:22.955Z,96378.92
2019-06-08T11:00:31.722Z,96372.85
2019-06-08T11:01:38.902Z,96366.99
2019-06-08T11:02:43.132Z,96375.91
2019-06-08T11:03:48.882Z,96371.89
2019-06-08T11:04:54.876Z,96380.65
2019-06-08T11:06:01.254Z,96374.99
2019-06-08T11:07:09.651Z,96369.53
2019-06-08T11:08:14.474Z,96380.22
2019-06-08T11:09:18.933Z,96371.91
2019-06-08T11:10:22.591Z,96370.77
2019-06-08T11:11:28.407Z,96372.77
2019-06-08T11:12:32.222Z,96365.95
2019-06-08T11:13:35.803Z,96368.86
2019-06-08T11:14:40.815Z,96370.30
2019-06-08T11:15:44.540Z,96362.48
2019-06-08T11:16:48.717Z,96365.31
2019-06-08T11:17:52.296Z,96362.34
2019-06-08T11:18:59.098Z,96363.39
2019-06-08T11:20:04.273Z,96358.23
2019-06-08T11:21:12.536Z,96359.01
2019-06-08T11:22:15.021Z,96354.95
2019-06-08T11:23:19.563Z,96353.77
2019-06-08T11:24:25.115Z,96357.72
2019-06-08T11:25:29.234Z,96354.20
2019-06-08T11:26:32.894Z,96343.89
2019-06-08T11:27:38.761Z,96353.91
2019-06-08T11:28:42.479Z,96353.43
2019-06-08T11:29:47.743Z,96347.39
2019-06-08T11:30:51.193Z,96354.27
2019-06-08T11:31:55.349Z,96351.09
2019-06-08T11:32:59.998Z,96351.77
2019-06-08T11:34:06.061Z,96354.44
2019-06-08T11:35:12.331Z,96353.77
2019-06-08T11:36:18.572Z,96351.56
2019-06-08T11:37:21.318Z,96350.89
2019-06-08T11:38:25.534Z,96350.87
2019-06-08T11:39:29.067Z,96350.33
2019-06-08T11:40:33.116Z,96354.38
2019-06-08T11:41:36.694Z,96355.25
2019-06-08T11:42:40.870Z,96350.03
2019-06-08T11:43:44.461Z,96339.47
2019-06-08T11:44:51.128Z,96355.75
2019-06-08T11:45:54.271Z,96342.81
2019-06-08T11:47:00.313Z,96341.33
2019-06-08T11:48:04.676Z,96344.48
2019-06-08T11:49:13.482Z,96340.17
2019-06-08T11:50:14.844Z,96332.45
2019-06-08T11:51:19.216Z,96340.47
2019-06-08T11:52:40.812Z,96333.70
2019-06-08T11:53:48.182Z,96341.69
2019-06-08T11:54:50.496Z,96340.75
2019-06-08T11:55:54.986Z,96330.59
2019-06-08T11:57:03.345Z,96336.16
2019-06-08T11:58:10.452Z,96325.65
2019-06-08T11:59:14.507Z,96329.23
2019-06-08T12:00:30.181Z,96329.73
2019-06-08T12:01:30.230Z,96324.42
2019-06-08T12:02:34.423Z,96330.24
2019-06-08T12:03:38.761Z,96332.26
2019-06-08T12:04:42.941Z,96327.16
2019-06-08T12:05:47.809Z,96327.19
2019-06-08T12:06:52.408Z,96330.94
2019-06-08T12:07:57.843Z,96326.97
2019-06-08T12:09:02.703Z,96327.91
2019-06-08T12:10:09.058Z,96328.17
2019-06-08T12:11:18.162Z,96334.75
2019-06-08T12:12:20.511Z,96330.19
2019-06-08T12:13:23.597Z,96329.66
2019-06-08T12:14:27.069Z,96323.12
2019-06-08T12:15:31.113Z,96329.77
2019-06-08T12:16:35.073Z,96329.09
2019-06-08T12:17:39.248Z,96325.89
2019-06-08T12:18:42.954Z,96327.39
2019-06-08T12:19:47.631Z,96323.94
2019-06-08T12:20:51.437Z,96325.73
2019-06-08T12:21:57.867Z,96326.17
2019-06-08T12:23:00.882Z,96324.04
2019-06-08T12:24:06.204Z,96326.17
2019-06-08T12:25:10.333Z,96329.90
2019-06-08T12:26:14.692Z,96324.44
2019-06-08T12:27:29.152Z,96320.80
2019-06-08T12:28:24.084Z,96320.34
2019-06-08T12:29:28.384Z,96326.87
2019-06-08T12:30:32.656Z,96319.97
2019-06-08T12:31:37.844Z,96314.80
2019-06-08T12:32:42.048Z,96318.01
2019-06-08T12:33:45.693Z,96329.05
2019-06-08T12:34:49.809Z,96315.91
2019-06-08T12:35:53.463Z,96314.63
2019-06-08T12:36:58.288Z,96308.15
2019-06-08T12:38:06.218Z,96318.74
2019-06-08T12:39:11.842Z,96313.27
2019-06-08T12:40:16.857Z,96313.02